Unbenanntes Dokument
Flugplatz Bielefeld Platzwetter

 

Aktuelles Platzwetter am Flugplatz Bielefeld EDLI

27.04.17 ,05:04 Uhr

METAR EDLI 270503Z 12004KT 5000 -SHRA ///031 01/01 Q1016

 

Windwerte

 

Wolkenuntergrenzen

Wind aktuell:130 ° mit 4 kt
Wind 10 min Extrem:
100 ° bis 140 ° mit 2 kt bis 5 kt
Seitenwindkomponente: 1.5 kt
Wolkengrenze 1: 3000 ft
Wolkengrenze 2:
Wolkengrenze 3:

Webcam

Temperatur

       

Sichtweite:

5.000 Meter

1.3 °C
Taupunkt: 1.2 °C
Luftfeuchtigkeit: 98 %

Luftdruck:

QNH: 1016 hPa (30.00 in Hg)
QFE: 999 hPa (29.50 in Hg)

Diese Daten werden automatisch ermittelt bzw. übertragen und sind nicht geprüft. Für die Richtigkeit wird daher keine Gewähr übernommen. Sie ersetzen im übrigen nicht die Flugwetterberatung. Alle Zeitangaben beziehen sich auf UTC. Die Seite wird einmal die Minute aktualisiert! Sollten Sie ein ältere Seite haben, so drücken Sie bitte auf den Reload Button Ihres Browsers!